createdAt,value
2023-05-13T00:01:24.448Z,102066.53
2023-05-13T00:03:53.753Z,102068.69
2023-05-13T00:06:24.209Z,102065.44
2023-05-13T00:08:53.384Z,102071.22
2023-05-13T00:11:22.184Z,102104.59
2023-05-13T00:13:51.098Z,102091.56
2023-05-13T00:16:20.545Z,102068.19
2023-05-13T00:18:49.908Z,102063.53
2023-05-13T00:21:19.034Z,101953.16
2023-05-13T00:23:49.713Z,102070.66
2023-05-13T00:26:18.873Z,102044.22
2023-05-13T00:28:50.812Z,102063.69
2023-05-13T00:31:19.892Z,102070.91
2023-05-13T00:33:49.156Z,102063.13
2023-05-13T00:36:18.608Z,102055.41
2023-05-13T00:38:49.187Z,102029.19
2023-05-13T00:41:19.800Z,102062.78
2023-05-13T00:43:48.874Z,102039.81
2023-05-13T00:46:18.430Z,102066.75
2023-05-13T00:48:47.671Z,102060.16
2023-05-13T00:51:16.925Z,102068.16
2023-05-13T00:53:47.533Z,102075.41
2023-05-13T00:56:22.077Z,102071.94
2023-05-13T00:58:51.392Z,102065.22
2023-05-13T01:01:30.109Z,102059.06
2023-05-13T01:04:09.849Z,102063.59
2023-05-13T01:06:47.110Z,102059.28
2023-05-13T01:09:23.260Z,102056.00
2023-05-13T01:11:57.012Z,102050.03
2023-05-13T01:14:30.640Z,102050.31
2023-05-13T01:17:06.304Z,102052.94
2023-05-13T01:19:43.193Z,102051.19
2023-05-13T01:22:14.344Z,102054.38
2023-05-13T01:24:45.774Z,102049.47
2023-05-13T01:27:15.460Z,102052.31
2023-05-13T01:29:45.571Z,102050.81
2023-05-13T01:32:17.903Z,102046.84
2023-05-13T01:34:48.122Z,102049.78
2023-05-13T01:37:18.841Z,102053.72
2023-05-13T01:39:49.074Z,102049.78
2023-05-13T01:42:18.562Z,102054.78
2023-05-13T01:44:47.894Z,102059.88
2023-05-13T01:47:17.130Z,102053.38
2023-05-13T01:49:48.531Z,102051.38
2023-05-13T01:52:19.028Z,102015.41
2023-05-13T01:54:48.047Z,102025.44
2023-05-13T01:57:19.671Z,102053.72
2023-05-13T01:59:49.028Z,102056.22
2023-05-13T02:07:31.394Z,102042.53
2023-05-13T02:10:00.759Z,102047.19
2023-05-13T02:12:30.177Z,102049.13
2023-05-13T02:14:59.557Z,102045.66
2023-05-13T02:17:28.786Z,102046.66
2023-05-13T02:19:57.778Z,102056.25
2023-05-13T02:22:28.922Z,102025.84
2023-05-13T02:24:59.455Z,102021.75
2023-05-13T02:27:28.310Z,102052.53
2023-05-13T02:29:57.757Z,102047.31
2023-05-13T02:32:26.870Z,102054.66
2023-05-13T02:34:56.012Z,102022.31
2023-05-13T02:37:27.875Z,102047.06
2023-05-13T02:40:08.171Z,102047.19
2023-05-13T02:42:37.391Z,102049.63
2023-05-13T02:45:07.622Z,102051.28
2023-05-13T02:47:40.122Z,102045.47
2023-05-13T02:50:10.707Z,102075.00
2023-05-13T02:52:40.600Z,102054.50
2023-05-13T02:55:12.003Z,102051.88
2023-05-13T02:57:41.149Z,102052.84
2023-05-13T03:00:11.185Z,102065.16
2023-05-13T03:02:40.533Z,102055.28
2023-05-13T03:05:10.451Z,102056.06
2023-05-13T03:07:39.500Z,102062.56
2023-05-13T03:10:12.559Z,102063.41
2023-05-13T03:12:43.427Z,101977.97
2023-05-13T03:15:15.999Z,102061.13
2023-05-13T03:17:46.086Z,102046.66
2023-05-13T03:20:15.195Z,102049.88
2023-05-13T03:22:44.355Z,102015.63
2023-05-13T03:25:15.337Z,102065.91
2023-05-13T03:27:52.494Z,102068.50
2023-05-13T03:30:23.945Z,102058.34
2023-05-13T03:33:04.300Z,102066.06
2023-05-13T03:35:33.602Z,102077.22
2023-05-13T03:38:03.016Z,102072.31
2023-05-13T03:40:34.067Z,102073.16
2023-05-13T03:43:03.420Z,102071.41
2023-05-13T03:45:33.387Z,102069.94
2023-05-13T03:48:08.098Z,102074.19
2023-05-13T03:50:37.312Z,102080.63
2023-05-13T03:53:07.176Z,102071.91
2023-05-13T03:55:40.167Z,102071.44
2023-05-13T03:58:13.371Z,102078.31
2023-05-13T04:00:42.745Z,102083.28
2023-05-13T04:03:14.282Z,102078.53
2023-05-13T04:05:44.256Z,102087.16
2023-05-13T04:08:16.995Z,102072.72
2023-05-13T04:10:47.251Z,101807.69
2023-05-13T04:13:16.650Z,102031.03
2023-05-13T04:15:47.733Z,102051.81
2023-05-13T04:18:16.740Z,101959.16
2023-05-13T04:20:46.240Z,102092.09
2023-05-13T04:23:19.453Z,102085.13
2023-05-13T04:25:53.705Z,102068.91
2023-05-13T04:28:23.184Z,102088.06
2023-05-13T04:30:54.466Z,101996.03
2023-05-13T04:33:23.905Z,102085.47
2023-05-13T04:35:52.990Z,102080.50
2023-05-13T04:38:21.982Z,102087.78
2023-05-13T04:40:53.627Z,102088.53
2023-05-13T04:43:30.719Z,102096.44
2023-05-13T04:46:01.330Z,102093.75
2023-05-13T04:48:30.565Z,102094.56
2023-05-13T04:51:00.665Z,102093.97
2023-05-13T04:53:31.370Z,102097.25
2023-05-13T04:56:05.558Z,102097.91
2023-05-13T04:58:34.686Z,102094.50
2023-05-13T05:01:06.584Z,102108.88
2023-05-13T05:03:35.744Z,102102.25
2023-05-13T05:06:05.163Z,102098.94
2023-05-13T05:08:34.222Z,102104.13
2023-05-13T05:11:04.354Z,102105.25
2023-05-13T05:13:35.299Z,102107.16
2023-05-13T05:16:09.642Z,102108.09
2023-05-13T05:18:41.299Z,102104.72
2023-05-13T05:21:10.368Z,102103.31
2023-05-13T05:23:42.426Z,102098.97
2023-05-13T05:26:12.848Z,102088.50
2023-05-13T05:28:44.492Z,101995.00
2023-05-13T05:31:14.690Z,102078.84
2023-05-13T05:33:43.535Z,102098.88
2023-05-13T05:36:14.577Z,102099.00
2023-05-13T05:38:43.266Z,102108.59
2023-05-13T05:41:14.540Z,102097.72
2023-05-13T05:43:43.377Z,102095.72
2023-05-13T05:46:12.166Z,102104.38
2023-05-13T05:48:41.016Z,102106.72
2023-05-13T05:51:10.395Z,102099.78
2023-05-13T05:53:41.113Z,102106.59
2023-05-13T05:56:14.665Z,102101.97
2023-05-13T05:58:44.221Z,102100.78
2023-05-13T06:01:15.733Z,102118.44
2023-05-13T06:03:45.984Z,102115.47
2023-05-13T06:06:14.912Z,102120.72
2023-05-13T06:08:43.649Z,102118.66
2023-05-13T06:11:13.752Z,102118.19
2023-05-13T06:13:45.157Z,102120.72
2023-05-13T06:16:13.950Z,102111.97
2023-05-13T06:18:43.251Z,102109.25
2023-05-13T06:21:12.064Z,102109.47
2023-05-13T06:23:42.272Z,102105.63
2023-05-13T06:26:11.058Z,102102.50
2023-05-13T06:28:41.172Z,102095.13
2023-05-13T06:31:09.998Z,102103.47
2023-05-13T06:33:39.245Z,102095.19
2023-05-13T06:36:09.423Z,102104.22
2023-05-13T06:38:40.689Z,102098.59
2023-05-13T06:41:09.768Z,102101.94
2023-05-13T06:43:41.450Z,102102.53
2023-05-13T06:46:36.598Z,102111.13
2023-05-13T06:49:05.418Z,102109.16
2023-05-13T06:51:36.651Z,102109.47
2023-05-13T06:54:05.534Z,102101.06
2023-05-13T06:56:35.477Z,102104.88
2023-05-13T06:59:08.510Z,102104.81
2023-05-13T07:01:37.384Z,102099.13
2023-05-13T07:04:09.008Z,102098.34
2023-05-13T07:06:40.351Z,102103.81
2023-05-13T07:09:09.837Z,102079.03
2023-05-13T07:11:39.122Z,102109.88
2023-05-13T07:14:09.595Z,101968.22
2023-05-13T07:16:38.514Z,102099.59
2023-05-13T07:19:12.334Z,102103.44
2023-05-13T07:21:41.380Z,102097.41
2023-05-13T07:24:10.220Z,102098.97
2023-05-13T07:26:39.835Z,102099.41
2023-05-13T07:29:10.070Z,102098.66
2023-05-13T07:31:41.352Z,102103.81
2023-05-13T07:34:10.185Z,102100.78
2023-05-13T07:36:39.078Z,102109.69
2023-05-13T07:39:08.788Z,102103.88
2023-05-13T07:41:38.097Z,102102.03
2023-05-13T07:44:11.745Z,102107.13
2023-05-13T07:46:44.533Z,102105.47
2023-05-13T07:49:13.523Z,102103.19
2023-05-13T07:51:42.479Z,102106.78
2023-05-13T07:54:11.590Z,102001.22
2023-05-13T07:56:40.473Z,102104.88
2023-05-13T07:59:09.464Z,102104.84
2023-05-13T08:01:38.583Z,102116.50
2023-05-13T08:04:08.958Z,102100.56
2023-05-13T08:06:38.074Z,102116.00
2023-05-13T08:09:09.501Z,102103.16
2023-05-13T08:11:38.168Z,102102.75
2023-05-13T08:14:07.340Z,102092.22
2023-05-13T08:16:37.052Z,102094.22
2023-05-13T08:19:06.055Z,102090.09
2023-05-13T08:21:36.174Z,102103.22
2023-05-13T08:24:07.893Z,102092.34
2023-05-13T08:26:36.842Z,102102.94
2023-05-13T08:29:05.948Z,102101.63
2023-05-13T08:31:34.804Z,102098.81
2023-05-13T08:34:03.870Z,102098.19
2023-05-13T08:36:32.744Z,102078.69
2023-05-13T08:39:03.084Z,102081.22
2023-05-13T08:41:32.304Z,102111.91
2023-05-13T08:44:01.849Z,102102.44
2023-05-13T08:46:33.757Z,102107.03
2023-05-13T08:49:02.833Z,101875.78
2023-05-13T08:51:32.221Z,102106.75
2023-05-13T08:54:02.634Z,102098.47
2023-05-13T08:56:31.484Z,102107.25
2023-05-13T08:59:00.382Z,102105.13
2023-05-13T09:01:31.172Z,102073.31
2023-05-13T09:04:06.443Z,102098.25
2023-05-13T09:06:37.784Z,102001.63
2023-05-13T09:09:09.754Z,102107.69
2023-05-13T09:11:41.037Z,102110.75
2023-05-13T09:14:12.839Z,102110.31
2023-05-13T09:16:43.569Z,102108.69
2023-05-13T09:19:13.785Z,102107.25
2023-05-13T09:21:45.368Z,102110.50
2023-05-13T09:24:18.927Z,102106.06
2023-05-13T09:26:48.522Z,102117.41
2023-05-13T09:29:23.240Z,102112.75
2023-05-13T09:31:53.919Z,102108.94
2023-05-13T09:34:30.842Z,102109.66
2023-05-13T09:37:01.619Z,102108.72
2023-05-13T09:39:33.991Z,102113.63
2023-05-13T09:42:05.344Z,102110.75
2023-05-13T09:44:37.029Z,102111.13
2023-05-13T09:47:06.136Z,102114.28
2023-05-13T09:49:37.504Z,102114.88
2023-05-13T09:52:10.168Z,102100.56
2023-05-13T09:54:40.457Z,102106.88
2023-05-13T09:57:14.055Z,102102.38
2023-05-13T09:59:42.865Z,102102.53
2023-05-13T10:02:16.629Z,102095.31
2023-05-13T10:04:45.865Z,102025.91
2023-05-13T10:07:15.450Z,102095.84
2023-05-13T10:09:47.201Z,102095.88
2023-05-13T10:12:16.630Z,102088.97
2023-05-13T10:14:45.549Z,102088.84
2023-05-13T10:17:15.581Z,102090.75
2023-05-13T10:19:44.938Z,102098.13
2023-05-13T10:22:15.444Z,102091.84
2023-05-13T10:24:45.930Z,102089.44
2023-05-13T10:27:15.321Z,102083.66
2023-05-13T10:29:45.607Z,102080.81
2023-05-13T10:32:17.116Z,102088.66
2023-05-13T10:34:47.730Z,102087.06
2023-05-13T10:37:40.881Z,102069.97
2023-05-13T10:40:34.159Z,102083.28
2023-05-13T10:43:14.066Z,102073.09
2023-05-13T10:45:47.318Z,102078.22
2023-05-13T10:48:17.943Z,102076.06
2023-05-13T10:50:55.396Z,102082.16
2023-05-13T10:53:29.411Z,102071.88
2023-05-13T10:56:01.254Z,102068.28
2023-05-13T10:58:32.012Z,102066.03
2023-05-13T11:01:17.695Z,102038.06
2023-05-13T11:03:54.774Z,102067.59
2023-05-13T11:06:31.196Z,102061.56
2023-05-13T11:09:00.233Z,102062.38
2023-05-13T11:11:34.203Z,102052.25
2023-05-13T11:14:15.729Z,102068.31
2023-05-13T11:17:41.847Z,102069.88
2023-05-13T11:20:12.027Z,102066.88
2023-05-13T11:25:14.244Z,102028.03
2023-05-13T11:27:44.524Z,102054.53
2023-05-13T11:30:24.502Z,102043.25
2023-05-13T11:32:56.166Z,102060.88
2023-05-13T11:35:28.771Z,102062.00
2023-05-13T11:37:59.969Z,102061.16
2023-05-13T11:40:32.906Z,102057.75
2023-05-13T11:43:05.183Z,102056.34
2023-05-13T11:45:34.567Z,102043.50
2023-05-13T11:48:22.210Z,102055.75
2023-05-13T11:50:52.040Z,102040.19
2023-05-13T11:53:22.414Z,102048.84
2023-05-13T11:55:51.807Z,102047.50
2023-05-13T11:58:22.307Z,102047.63
2023-05-13T12:00:51.987Z,102045.38
2023-05-13T12:03:20.833Z,102048.16
2023-05-13T12:05:51.373Z,102048.84
2023-05-13T12:08:21.276Z,102037.34
2023-05-13T12:10:53.569Z,102056.81
2023-05-13T12:13:23.960Z,102038.91
2023-05-13T12:15:53.552Z,102044.00
2023-05-13T12:18:22.349Z,102040.13
2023-05-13T12:20:51.710Z,102049.41
2023-05-13T12:23:22.813Z,102041.56
2023-05-13T12:25:51.948Z,102034.09
2023-05-13T12:28:23.687Z,102006.41
2023-05-13T12:30:54.805Z,102039.16
2023-05-13T12:33:24.832Z,101992.78
2023-05-13T12:35:55.353Z,102043.63
2023-05-13T12:38:25.616Z,102046.50
2023-05-13T12:40:55.117Z,102049.94
2023-05-13T12:43:25.307Z,102050.06
2023-05-13T12:45:55.736Z,102044.66
2023-05-13T12:48:27.085Z,102037.34
2023-05-13T12:51:00.113Z,102036.69
2023-05-13T12:53:31.082Z,102022.00
2023-05-13T12:56:00.127Z,102047.09
2023-05-13T12:58:30.217Z,102041.81
2023-05-13T13:01:01.294Z,102040.59
2023-05-13T13:03:30.357Z,102016.44
2023-05-13T13:05:59.191Z,102035.03
2023-05-13T13:08:30.414Z,101999.47
2023-05-13T13:11:00.716Z,102044.59
2023-05-13T13:13:30.922Z,102044.59
2023-05-13T13:15:59.982Z,102030.97
2023-05-13T13:18:28.883Z,102008.22
2023-05-13T13:20:57.683Z,102029.16
2023-05-13T13:23:26.616Z,102024.22
2023-05-13T13:25:55.426Z,102020.47
2023-05-13T13:28:24.088Z,102023.00
2023-05-13T13:30:54.218Z,102027.94
2023-05-13T13:33:23.089Z,102027.63
2023-05-13T13:35:51.906Z,102028.91
2023-05-13T13:38:20.646Z,102002.63
2023-05-13T13:40:52.406Z,102017.25
2023-05-13T13:43:23.504Z,102013.69
2023-05-13T13:45:52.384Z,102017.41
2023-05-13T13:48:25.290Z,102007.59
2023-05-13T13:50:59.667Z,102013.94
2023-05-13T13:53:28.570Z,102007.50
2023-05-13T13:55:57.461Z,101999.91
2023-05-13T13:58:26.440Z,102004.00
2023-05-13T14:00:57.523Z,102002.44
2023-05-13T14:03:28.317Z,101999.31
2023-05-13T14:05:57.237Z,102000.38
2023-05-13T14:08:26.168Z,101992.72
2023-05-13T14:10:54.993Z,101997.72
2023-05-13T14:13:23.714Z,101998.09
2023-05-13T14:15:52.408Z,101997.50
2023-05-13T14:18:21.154Z,101941.63
2023-05-13T14:20:51.425Z,101992.19
2023-05-13T14:23:20.174Z,101991.22
2023-05-13T14:25:49.075Z,101998.31
2023-05-13T14:28:18.459Z,101990.56
2023-05-13T14:30:47.246Z,101978.44
2023-05-13T14:33:16.014Z,101981.94
2023-05-13T14:35:44.796Z,101984.47
2023-05-13T14:38:14.878Z,101982.72
2023-05-13T14:40:43.706Z,101987.00
2023-05-13T14:43:12.549Z,101979.22
2023-05-13T14:46:12.672Z,101979.00
2023-05-13T14:48:41.491Z,101979.75
2023-05-13T14:51:12.375Z,101979.75
2023-05-13T14:53:44.841Z,101983.06
2023-05-13T14:56:13.699Z,101975.88
2023-05-13T14:58:44.664Z,101968.78
2023-05-13T15:01:13.467Z,101981.44
2023-05-13T15:03:42.185Z,101978.03
2023-05-13T15:06:11.142Z,101980.59
2023-05-13T15:08:40.129Z,101903.25
2023-05-13T15:11:10.393Z,101890.03
2023-05-13T15:13:39.407Z,101970.19
2023-05-13T15:16:08.645Z,101970.78
2023-05-13T15:18:39.915Z,101970.53
2023-05-13T15:21:08.612Z,101967.78
2023-05-13T15:23:37.738Z,101964.94
2023-05-13T15:26:06.478Z,101961.66
2023-05-13T15:28:36.654Z,101970.97
2023-05-13T15:31:05.724Z,101971.84
2023-05-13T15:33:34.501Z,101971.69
2023-05-13T15:36:03.394Z,101963.72
2023-05-13T15:38:32.502Z,101968.34
2023-05-13T15:41:03.497Z,101959.28
2023-05-13T15:43:34.187Z,101961.69
2023-05-13T15:46:04.664Z,101952.91
2023-05-13T15:48:33.864Z,101958.75
2023-05-13T15:51:03.783Z,101957.31
2023-05-13T15:53:32.618Z,101951.28
2023-05-13T15:56:01.373Z,101957.44
2023-05-13T15:58:30.156Z,101958.03
2023-05-13T16:00:59.583Z,101961.22
2023-05-13T16:03:29.751Z,101951.44
2023-05-13T16:05:58.509Z,101865.47
2023-05-13T16:08:27.287Z,101952.03
2023-05-13T16:10:56.023Z,101953.47
2023-05-13T16:13:25.027Z,101954.44
2023-05-13T16:15:54.190Z,101951.09
2023-05-13T16:18:25.153Z,101919.69
2023-05-13T16:20:55.488Z,101952.16
2023-05-13T16:23:24.460Z,101853.72
2023-05-13T16:25:53.220Z,101958.06
2023-05-13T16:28:21.887Z,101946.25
2023-05-13T16:30:51.382Z,101937.44
2023-05-13T16:33:20.258Z,101942.94
2023-05-13T16:35:51.319Z,101883.50
2023-05-13T16:38:21.344Z,101950.81
2023-05-13T16:40:50.431Z,101940.66
2023-05-13T16:43:22.323Z,101945.50
2023-05-13T16:45:51.765Z,101939.44
2023-05-13T16:48:21.413Z,101944.63
2023-05-13T16:50:51.358Z,101942.81
2023-05-13T16:53:23.336Z,101935.81
2023-05-13T16:55:52.496Z,101939.63
2023-05-13T16:58:24.308Z,101931.69
2023-05-13T17:00:53.469Z,101930.56
2023-05-13T17:03:22.518Z,101933.22
2023-05-13T17:05:51.401Z,101927.06
2023-05-13T17:08:21.401Z,101921.03
2023-05-13T17:10:51.532Z,101930.44
2023-05-13T17:13:22.851Z,101949.69
2023-05-13T17:15:53.859Z,101933.66
2023-05-13T17:18:22.667Z,101931.63
2023-05-13T17:20:51.461Z,101839.50
2023-05-13T17:23:22.431Z,101936.97
2023-05-13T17:25:52.645Z,101933.25
2023-05-13T17:28:21.434Z,101860.78
2023-05-13T17:30:52.550Z,101937.31
2023-05-13T17:33:21.787Z,101923.31
2023-05-13T17:35:50.792Z,101933.56
2023-05-13T17:38:19.513Z,101940.03
2023-05-13T17:40:48.433Z,101938.16
2023-05-13T17:43:19.055Z,101939.41
2023-05-13T17:45:48.025Z,101931.00
2023-05-13T17:48:16.920Z,101938.28
2023-05-13T17:50:48.112Z,101933.75
2023-05-13T17:53:16.841Z,101939.25
2023-05-13T17:55:48.931Z,101925.53
2023-05-13T17:58:19.060Z,101935.88
2023-05-13T18:00:48.294Z,101943.63
2023-05-13T18:03:17.480Z,101959.59
2023-05-13T18:05:46.306Z,101942.47
2023-05-13T18:08:15.120Z,101927.13
2023-05-13T18:10:44.042Z,101938.47
2023-05-13T18:13:12.858Z,101943.09
2023-05-13T18:15:43.241Z,101947.84
2023-05-13T18:18:12.102Z,101939.72
2023-05-13T18:20:42.126Z,101948.06
2023-05-13T18:23:10.908Z,101953.16
2023-05-13T18:25:48.815Z,101953.97
2023-05-13T18:28:24.265Z,101960.63
2023-05-13T18:30:54.495Z,101958.88
2023-05-13T18:33:23.280Z,101958.06
2023-05-13T18:35:53.249Z,101949.56
2023-05-13T18:38:22.008Z,101953.91
2023-05-13T18:40:50.850Z,101972.41
2023-05-13T18:43:19.563Z,101977.38
2023-05-13T18:45:48.361Z,101979.88
2023-05-13T18:48:18.591Z,101982.97
2023-05-13T18:50:47.382Z,101980.88
2023-05-13T18:53:16.123Z,101982.44
2023-05-13T18:55:44.863Z,101984.50
2023-05-13T18:58:13.568Z,101985.16
2023-05-13T19:00:42.539Z,101989.50
2023-05-13T19:03:11.459Z,101987.13
2023-05-13T19:05:41.753Z,101988.19
2023-05-13T19:08:10.512Z,102001.25
2023-05-13T19:10:40.435Z,101988.56
2023-05-13T19:13:09.497Z,101991.75
2023-05-13T19:15:38.402Z,101995.63
2023-05-13T19:18:07.317Z,102001.81
2023-05-13T19:20:36.230Z,101993.16
2023-05-13T19:23:06.419Z,102003.25
2023-05-13T19:25:42.112Z,102000.25
2023-05-13T19:28:13.360Z,102005.19
2023-05-13T19:30:42.880Z,101995.69
2023-05-13T19:33:11.734Z,102003.38
2023-05-13T19:35:44.592Z,102007.16
2023-05-13T19:38:16.789Z,102014.91
2023-05-13T19:40:46.085Z,102010.97
2023-05-13T19:43:15.315Z,102013.66
2023-05-13T19:45:44.052Z,102014.28
2023-05-13T19:48:13.997Z,102012.28
2023-05-13T19:50:42.776Z,102020.00
2023-05-13T19:53:11.518Z,102011.06
2023-05-13T19:55:41.737Z,102021.09
2023-05-13T19:58:10.473Z,102013.66
2023-05-13T20:00:39.323Z,102027.50
2023-05-13T20:03:08.394Z,102022.03
2023-05-13T20:05:37.272Z,102024.66
2023-05-13T20:08:06.432Z,102022.59
2023-05-13T20:10:36.783Z,102018.25
2023-05-13T20:13:07.993Z,102018.19
2023-05-13T20:15:36.986Z,102012.38
2023-05-13T20:18:06.090Z,102032.66
2023-05-13T20:20:35.524Z,102026.97
2023-05-13T20:23:04.338Z,102033.91
2023-05-13T20:25:33.091Z,102026.13
2023-05-13T20:28:04.125Z,102034.66
2023-05-13T20:30:35.652Z,102034.47
2023-05-13T20:33:09.103Z,102039.91
2023-05-13T20:35:38.350Z,102039.78
2023-05-13T20:38:07.305Z,102039.47
2023-05-13T20:40:36.280Z,102039.84
2023-05-13T20:43:07.521Z,102040.97
2023-05-13T20:45:39.756Z,102036.47
2023-05-13T20:48:11.049Z,102037.09
2023-05-13T20:50:39.783Z,102034.69
2023-05-13T20:53:11.362Z,102036.84
2023-05-13T20:55:42.316Z,102034.16
2023-05-13T20:58:12.166Z,102029.25
2023-05-13T21:00:42.383Z,102040.53
2023-05-13T21:03:11.595Z,102022.69
2023-05-13T21:05:40.556Z,102033.19
2023-05-13T21:08:09.357Z,102033.19
2023-05-13T21:10:38.293Z,102027.03
2023-05-13T21:13:07.253Z,102029.44
2023-05-13T21:15:38.503Z,102031.94
2023-05-13T21:18:08.869Z,102035.81
2023-05-13T21:20:37.703Z,102035.50
2023-05-13T21:23:06.487Z,102022.63
2023-05-13T21:25:35.284Z,102015.00
2023-05-13T21:28:05.615Z,102042.41
2023-05-13T21:30:34.368Z,102041.63
2023-05-13T21:33:03.247Z,102037.06
2023-05-13T21:35:33.406Z,102033.97
2023-05-13T21:38:12.112Z,102046.59
2023-05-13T21:40:44.502Z,102040.22
2023-05-13T21:43:13.505Z,102033.44
2023-05-13T21:45:42.392Z,102036.72
2023-05-13T21:48:11.359Z,102018.00
2023-05-13T21:50:41.791Z,101917.38
2023-05-13T21:53:11.817Z,102000.00
2023-05-13T21:55:40.888Z,102026.06
2023-05-13T21:58:09.656Z,102032.53
2023-05-13T22:00:38.383Z,102024.59
2023-05-13T22:03:07.473Z,102015.72
2023-05-13T22:05:42.298Z,102029.06
2023-05-13T22:08:14.911Z,102033.78
2023-05-13T22:10:43.846Z,102024.34
2023-05-13T22:13:12.669Z,101885.28
2023-05-13T22:15:41.820Z,102027.75
2023-05-13T22:18:10.811Z,102023.72
2023-05-13T22:20:39.556Z,102013.78
2023-05-13T22:23:08.790Z,102028.25
2023-05-13T22:25:39.163Z,102026.25
2023-05-13T22:28:12.275Z,102026.72
2023-05-13T22:30:40.874Z,102025.25
2023-05-13T22:33:09.672Z,102029.25
2023-05-13T22:35:39.588Z,102016.16
2023-05-13T22:38:08.662Z,102026.34
2023-05-13T22:40:39.217Z,102021.31
2023-05-13T22:43:08.093Z,102018.44
2023-05-13T22:45:38.146Z,102025.25
2023-05-13T22:48:08.206Z,101991.50
2023-05-13T22:50:37.038Z,101872.06
2023-05-13T22:53:05.848Z,101915.63
2023-05-13T22:55:34.764Z,102018.69
2023-05-13T22:58:05.217Z,102015.22
2023-05-13T23:00:34.082Z,102019.44
2023-05-13T23:03:02.969Z,102018.13
2023-05-13T23:05:31.902Z,102010.44
2023-05-13T23:08:00.758Z,102010.59
2023-05-13T23:10:30.047Z,102001.69
2023-05-13T23:12:58.964Z,102010.84
2023-05-13T23:15:29.126Z,102013.97
2023-05-13T23:17:58.191Z,101997.94
2023-05-13T23:20:29.194Z,101982.66
2023-05-13T23:22:58.107Z,102002.91
2023-05-13T23:25:29.409Z,102005.53
2023-05-13T23:27:58.382Z,102002.34
2023-05-13T23:30:28.467Z,102001.75
2023-05-13T23:32:59.679Z,102000.75
2023-05-13T23:35:28.692Z,101855.88
2023-05-13T23:37:57.856Z,101997.81
2023-05-13T23:40:26.794Z,101992.78
2023-05-13T23:42:55.696Z,101992.84
2023-05-13T23:45:24.586Z,101992.84
2023-05-13T23:47:54.810Z,101986.28
2023-05-13T23:50:24.289Z,101985.69
2023-05-13T23:52:53.104Z,101977.47
2023-05-13T23:55:22.243Z,101978.16
2023-05-13T23:57:53.523Z,101977.34
